createdAt,value
2022-10-21T00:01:00.296Z,33.33
2022-10-21T00:03:28.425Z,33.56
2022-10-21T00:05:57.829Z,33.48
2022-10-21T00:08:25.842Z,33.61
2022-10-21T00:10:54.550Z,33.71
2022-10-21T00:13:23.268Z,33.30
2022-10-21T00:16:01.701Z,33.56
2022-10-21T00:18:29.734Z,33.41
2022-10-21T00:20:59.104Z,33.58
2022-10-21T00:23:27.420Z,33.84
2022-10-21T00:25:58.032Z,33.55
2022-10-21T00:28:26.649Z,33.91
2022-10-21T00:30:54.610Z,33.63
2022-10-21T00:33:22.738Z,33.85
2022-10-21T00:35:54.125Z,33.75
2022-10-21T00:38:23.415Z,33.47
2022-10-21T00:40:51.902Z,33.66
2022-10-21T00:43:20.097Z,33.45
2022-10-21T00:45:53.130Z,33.55
2022-10-21T00:48:30.737Z,33.54
2022-10-21T00:51:01.949Z,33.51
2022-10-21T00:53:32.788Z,33.88
2022-10-21T00:56:06.237Z,33.80
2022-10-21T00:58:35.818Z,33.56
2022-10-21T01:01:06.084Z,33.75
2022-10-21T01:03:35.352Z,33.90
2022-10-21T01:06:08.037Z,33.94
2022-10-21T01:08:38.911Z,33.72
2022-10-21T01:11:12.523Z,33.94
2022-10-21T01:13:52.629Z,33.66
2022-10-21T01:16:28.689Z,33.72
2022-10-21T01:19:03.381Z,33.99
2022-10-21T01:21:35.810Z,33.70
2022-10-21T01:24:45.498Z,34.07
2022-10-21T01:27:21.590Z,33.79
2022-10-21T01:30:15.367Z,33.80
2022-10-21T01:33:20.685Z,33.87
2022-10-21T01:35:53.722Z,34.19
2022-10-21T01:38:29.674Z,34.11
2022-10-21T01:41:03.301Z,33.79
2022-10-21T01:43:38.769Z,34.18
2022-10-21T01:46:11.961Z,34.21
2022-10-21T01:48:45.833Z,34.24
2022-10-21T01:51:14.413Z,33.85
2022-10-21T01:53:46.754Z,34.20
2022-10-21T01:56:18.848Z,34.13
2022-10-21T01:58:48.896Z,34.23
2022-10-21T02:01:19.770Z,34.08
2022-10-21T02:03:52.542Z,34.06
2022-10-21T02:06:20.517Z,33.92
2022-10-21T02:08:48.534Z,33.94
2022-10-21T02:11:18.652Z,33.98
2022-10-21T02:13:52.445Z,34.32
2022-10-21T02:16:25.156Z,33.77
2022-10-21T02:18:56.033Z,33.84
2022-10-21T02:21:27.007Z,33.85
2022-10-21T02:23:58.589Z,34.17
2022-10-21T02:26:29.050Z,34.03
2022-10-21T02:29:00.290Z,34.00
2022-10-21T02:31:41.191Z,34.14
2022-10-21T02:34:21.586Z,33.95
2022-10-21T02:36:57.396Z,34.24
2022-10-21T02:39:32.049Z,33.94
2022-10-21T02:42:03.839Z,33.96
2022-10-21T02:44:32.176Z,33.95
2022-10-21T02:47:00.188Z,33.74
2022-10-21T02:49:29.494Z,33.83
2022-10-21T02:51:57.786Z,33.96
2022-10-21T02:54:25.833Z,33.94
2022-10-21T02:56:53.704Z,33.61
2022-10-21T02:59:21.607Z,33.89
2022-10-21T03:01:49.604Z,34.09
2022-10-21T03:04:17.504Z,33.73
2022-10-21T03:06:46.762Z,33.73
2022-10-21T03:09:14.627Z,33.97
2022-10-21T03:11:42.519Z,33.63
2022-10-21T03:14:10.384Z,33.72
2022-10-21T03:16:38.317Z,33.77
2022-10-21T03:19:06.286Z,33.98
2022-10-21T03:21:34.189Z,34.01
2022-10-21T03:24:05.696Z,34.00
2022-10-21T03:26:36.088Z,33.58
2022-10-21T03:29:04.137Z,33.95
2022-10-21T03:31:32.058Z,33.87
2022-10-21T03:33:59.950Z,33.63
2022-10-21T03:36:27.902Z,33.64
2022-10-21T03:38:55.797Z,33.89
2022-10-21T03:41:25.076Z,33.70
2022-10-21T03:43:52.993Z,33.82
2022-10-21T03:46:20.959Z,33.57
2022-10-21T03:48:48.866Z,33.99
2022-10-21T03:51:16.780Z,33.96
2022-10-21T03:53:44.704Z,33.90
2022-10-21T03:56:13.452Z,33.61
2022-10-21T03:58:42.943Z,33.87
2022-10-21T04:01:13.307Z,33.58
2022-10-21T04:03:41.338Z,33.57
2022-10-21T04:06:09.449Z,33.71
2022-10-21T04:08:37.487Z,33.50
2022-10-21T04:11:05.760Z,33.41
2022-10-21T04:13:33.682Z,33.50
2022-10-21T04:16:06.823Z,33.42
2022-10-21T04:18:35.483Z,33.19
2022-10-21T04:21:03.432Z,33.67
2022-10-21T04:23:31.412Z,33.23
2022-10-21T04:25:59.346Z,33.47
2022-10-21T04:28:27.232Z,33.29
2022-10-21T04:30:55.193Z,33.55
2022-10-21T04:33:24.439Z,33.45
2022-10-21T04:35:52.464Z,33.29
2022-10-21T04:38:20.352Z,33.46
2022-10-21T04:40:48.228Z,33.39
2022-10-21T04:43:16.136Z,33.25
2022-10-21T04:45:44.024Z,33.27
2022-10-21T04:48:13.637Z,33.03
2022-10-21T04:50:42.894Z,33.31
2022-10-21T04:53:10.790Z,32.82
2022-10-21T04:55:40.161Z,33.19
2022-10-21T04:58:08.116Z,32.82
2022-10-21T05:00:36.556Z,33.01
2022-10-21T05:03:04.739Z,32.81
2022-10-21T05:05:32.685Z,32.78
2022-10-21T05:08:02.153Z,33.02
2022-10-21T05:10:30.471Z,32.83
2022-10-21T05:12:58.806Z,32.59
2022-10-21T05:15:27.480Z,33.04
2022-10-21T05:17:55.361Z,32.69
2022-10-21T05:20:23.296Z,32.78
2022-10-21T05:22:51.904Z,32.58
2022-10-21T05:25:23.011Z,32.63
2022-10-21T05:27:51.918Z,32.77
2022-10-21T05:30:19.896Z,32.96
2022-10-21T05:32:47.849Z,32.54
2022-10-21T05:35:15.988Z,32.57
2022-10-21T05:37:44.086Z,32.65
2022-10-21T05:40:12.810Z,32.78
2022-10-21T05:42:42.160Z,32.44
2022-10-21T05:45:11.564Z,32.70
2022-10-21T05:47:41.386Z,32.58
2022-10-21T05:50:10.784Z,32.82
2022-10-21T05:52:39.128Z,32.65
2022-10-21T05:55:09.085Z,32.64
2022-10-21T05:57:37.822Z,32.73
2022-10-21T06:00:08.805Z,32.66
2022-10-21T06:02:37.834Z,32.67
2022-10-21T06:05:06.383Z,32.55
2022-10-21T06:07:34.465Z,32.25
2022-10-21T06:10:02.369Z,32.50
2022-10-21T06:12:30.273Z,32.49
2022-10-21T06:14:58.253Z,32.70
2022-10-21T06:17:27.620Z,32.56
2022-10-21T06:19:55.618Z,32.31
2022-10-21T06:22:23.570Z,32.59
2022-10-21T06:24:51.754Z,32.57
2022-10-21T06:27:20.162Z,32.52
2022-10-21T06:29:48.210Z,32.66
2022-10-21T06:32:16.117Z,32.27
2022-10-21T06:34:45.448Z,32.63
2022-10-21T06:37:13.325Z,32.51
2022-10-21T06:39:41.340Z,32.50
2022-10-21T06:42:09.232Z,32.44
2022-10-21T06:44:46.954Z,32.36
2022-10-21T06:47:14.925Z,32.22
2022-10-21T06:49:42.811Z,32.51
2022-10-21T06:52:12.130Z,32.45
2022-10-21T06:54:40.035Z,32.17
2022-10-21T06:57:07.955Z,32.53
2022-10-21T06:59:35.870Z,32.41
2022-10-21T07:02:03.860Z,32.78
2022-10-21T07:04:31.761Z,32.78
2022-10-21T07:06:59.699Z,32.62
2022-10-21T07:09:29.253Z,32.81
2022-10-21T07:11:57.344Z,32.86
2022-10-21T07:14:25.366Z,32.73
2022-10-21T07:16:54.020Z,33.22
2022-10-21T07:19:22.045Z,33.30
2022-10-21T07:21:49.928Z,33.06
2022-10-21T07:24:22.322Z,33.12
2022-10-21T07:26:52.137Z,33.27
2022-10-21T07:29:20.266Z,33.26
2022-10-21T07:31:48.230Z,33.62
2022-10-21T07:34:16.242Z,33.93
2022-10-21T07:36:47.993Z,34.31
2022-10-21T07:39:19.048Z,33.97
2022-10-21T07:41:48.716Z,33.97
2022-10-21T07:44:19.149Z,34.24
2022-10-21T07:46:49.491Z,34.37
2022-10-21T07:49:18.871Z,34.32
2022-10-21T07:51:50.145Z,34.08
2022-10-21T07:54:19.182Z,34.38
2022-10-21T07:56:49.782Z,34.10
2022-10-21T07:59:20.638Z,34.47
2022-10-21T08:04:29.804Z,34.24
2022-10-21T08:06:58.132Z,33.96
2022-10-21T08:09:26.608Z,33.91
2022-10-21T08:11:54.579Z,34.27
2022-10-21T08:14:24.486Z,34.25
2022-10-21T08:16:53.912Z,33.78
2022-10-21T08:19:25.386Z,33.71
2022-10-21T08:21:53.327Z,33.97
2022-10-21T08:24:21.357Z,33.83
2022-10-21T08:26:49.289Z,33.71
2022-10-21T08:29:17.227Z,33.62
2022-10-21T08:31:46.776Z,33.93
2022-10-21T08:34:14.649Z,33.89
2022-10-21T08:36:42.718Z,33.68
2022-10-21T08:39:10.745Z,33.41
2022-10-21T08:42:00.973Z,33.34
2022-10-21T08:44:36.982Z,33.72
2022-10-21T08:47:14.764Z,33.62
2022-10-21T08:49:51.093Z,33.42
2022-10-21T08:52:24.309Z,33.09
2022-10-21T08:54:56.455Z,33.41
2022-10-21T08:57:24.638Z,33.46
2022-10-21T08:59:52.553Z,33.08
2022-10-21T09:02:33.673Z,33.05
2022-10-21T09:05:19.334Z,33.00
2022-10-21T09:07:59.301Z,33.10
2022-10-21T09:10:39.235Z,33.00
2022-10-21T09:13:14.118Z,33.08
2022-10-21T09:15:53.672Z,33.43
2022-10-21T09:18:33.443Z,33.11
2022-10-21T09:21:10.225Z,33.08
2022-10-21T09:23:54.273Z,32.98
2022-10-21T09:26:33.913Z,33.19
2022-10-21T09:29:12.761Z,33.12
2022-10-21T09:31:41.650Z,33.24
2022-10-21T09:34:20.773Z,32.96
2022-10-21T09:36:51.142Z,32.90
2022-10-21T09:39:25.833Z,33.25
2022-10-21T09:42:00.065Z,32.85
2022-10-21T09:44:31.666Z,32.92
2022-10-21T09:46:59.568Z,33.14
2022-10-21T09:52:22.947Z,32.74
2022-10-21T09:54:51.523Z,32.63
2022-10-21T09:57:24.627Z,32.56
2022-10-21T09:59:54.526Z,32.79
2022-10-21T10:02:30.041Z,32.55
2022-10-21T10:04:59.532Z,32.46
2022-10-21T10:07:35.111Z,32.46
2022-10-21T10:10:05.216Z,32.33
2022-10-21T10:12:33.113Z,32.09
2022-10-21T10:15:33.719Z,32.42
2022-10-21T10:18:02.352Z,32.95
2022-10-21T10:20:30.536Z,33.00
2022-10-21T10:23:19.727Z,33.47
2022-10-21T10:25:51.994Z,33.47
2022-10-21T10:28:26.720Z,34.35
2022-10-21T10:30:58.093Z,34.41
2022-10-21T10:33:29.113Z,34.94
2022-10-21T10:35:59.537Z,35.01
2022-10-21T10:38:35.989Z,35.03
2022-10-21T10:41:06.776Z,35.05
2022-10-21T10:43:36.841Z,34.66
2022-10-21T10:46:10.368Z,35.15
2022-10-21T10:48:42.946Z,35.57
2022-10-21T10:51:26.076Z,35.62
2022-10-21T10:54:18.468Z,35.49
2022-10-21T10:56:52.561Z,35.74
2022-10-21T10:59:30.224Z,35.30
2022-10-21T11:02:09.425Z,35.68
2022-10-21T11:04:40.918Z,35.36
2022-10-21T11:07:22.641Z,35.38
2022-10-21T11:09:53.762Z,35.00
2022-10-21T11:12:26.599Z,34.79
2022-10-21T11:14:57.361Z,34.64
2022-10-21T11:17:34.685Z,34.57
2022-10-21T11:20:15.757Z,34.35
2022-10-21T11:22:56.112Z,34.05
2022-10-21T11:25:31.649Z,34.10
2022-10-21T11:28:14.582Z,33.71
2022-10-21T11:30:59.501Z,33.65
2022-10-21T11:33:39.171Z,33.79
2022-10-21T11:36:14.174Z,33.60
2022-10-21T11:39:31.908Z,33.72
2022-10-21T11:42:12.292Z,34.46
2022-10-21T11:45:01.882Z,34.42
2022-10-21T11:47:37.661Z,34.11
2022-10-21T11:50:17.594Z,34.86
2022-10-21T11:53:02.357Z,34.74
2022-10-21T11:55:39.381Z,35.03
2022-10-21T11:58:25.643Z,35.47
2022-10-21T12:01:04.786Z,34.84
2022-10-21T12:03:58.650Z,34.78
2022-10-21T12:06:35.860Z,34.41
2022-10-21T12:09:08.033Z,34.15
2022-10-21T12:11:40.469Z,34.13
2022-10-21T12:14:22.773Z,33.94
2022-10-21T12:16:51.444Z,33.63
2022-10-21T12:19:20.457Z,33.72
2022-10-21T12:21:50.156Z,33.57
2022-10-21T12:24:36.604Z,33.22
2022-10-21T12:27:11.709Z,33.32
2022-10-21T12:29:52.820Z,33.24
2022-10-21T12:32:27.097Z,33.16
2022-10-21T12:34:55.276Z,33.12
2022-10-21T12:38:06.282Z,32.82
2022-10-21T12:40:40.718Z,32.54
2022-10-21T12:43:22.557Z,32.24
2022-10-21T12:46:04.773Z,32.19
2022-10-21T12:48:36.366Z,31.88
2022-10-21T12:51:07.555Z,31.78
2022-10-21T12:53:41.344Z,31.75
2022-10-21T12:56:11.709Z,31.71
2022-10-21T12:58:43.906Z,31.82
2022-10-21T13:01:38.764Z,32.28
2022-10-21T13:04:27.349Z,32.10
2022-10-21T13:06:57.259Z,32.47
2022-10-21T13:09:38.576Z,32.48
2022-10-21T13:12:19.112Z,32.42
2022-10-21T13:14:48.830Z,32.34
2022-10-21T13:17:34.202Z,32.41
2022-10-21T13:20:39.779Z,32.48
2022-10-21T13:23:32.715Z,32.28
2022-10-21T13:26:20.035Z,31.91
2022-10-21T13:29:00.436Z,32.30
2022-10-21T13:31:31.984Z,32.16
2022-10-21T13:34:00.140Z,31.79
2022-10-21T13:36:39.681Z,31.81
2022-10-21T13:39:23.307Z,31.54
2022-10-21T13:42:01.115Z,31.70
2022-10-21T13:44:35.197Z,31.74
2022-10-21T13:47:21.750Z,32.02
2022-10-21T13:49:55.005Z,31.83
2022-10-21T13:52:27.444Z,31.94
2022-10-21T13:54:59.406Z,31.90
2022-10-21T13:57:32.991Z,32.11
2022-10-21T14:00:01.777Z,32.05
2022-10-21T14:02:32.909Z,32.04
2022-10-21T14:05:00.844Z,32.27
2022-10-21T14:07:29.342Z,32.26
2022-10-21T14:09:58.717Z,32.16
2022-10-21T14:12:30.355Z,32.29
2022-10-21T14:15:06.385Z,32.08
2022-10-21T14:17:35.971Z,32.05
2022-10-21T14:20:07.502Z,31.85
2022-10-21T14:22:35.804Z,32.18
2022-10-21T14:25:04.620Z,32.06
2022-10-21T14:27:34.995Z,32.19
2022-10-21T14:30:10.146Z,32.14
2022-10-21T14:32:39.964Z,32.35
2022-10-21T14:35:25.217Z,32.01
2022-10-21T14:37:55.688Z,32.11
2022-10-21T14:40:31.999Z,32.13
2022-10-21T14:43:02.055Z,32.04
2022-10-21T14:45:35.195Z,32.36
2022-10-21T14:48:10.831Z,31.97
2022-10-21T14:50:40.450Z,31.99
2022-10-21T14:53:16.566Z,31.99
2022-10-21T14:55:46.109Z,32.19
2022-10-21T15:00:58.864Z,32.32
2022-10-21T15:03:41.406Z,31.76
2022-10-21T15:06:12.176Z,31.97
2022-10-21T15:08:44.862Z,32.31
2022-10-21T15:11:23.498Z,32.29
2022-10-21T15:14:06.457Z,32.15
2022-10-21T15:16:36.920Z,32.43
2022-10-21T15:19:09.894Z,32.38
2022-10-21T15:21:41.158Z,32.17
2022-10-21T15:24:19.461Z,32.30
2022-10-21T15:26:49.572Z,32.48
2022-10-21T15:29:27.314Z,32.40
2022-10-21T15:31:58.553Z,32.58
2022-10-21T15:34:26.697Z,32.63
2022-10-21T15:36:54.586Z,32.32
2022-10-21T15:39:22.712Z,32.63
2022-10-21T15:41:53.814Z,32.44
2022-10-21T15:44:25.930Z,32.75
2022-10-21T15:46:58.227Z,32.85
2022-10-21T15:49:29.352Z,32.75
2022-10-21T15:51:57.233Z,32.93
2022-10-21T15:54:25.455Z,32.87
2022-10-21T15:56:55.548Z,32.90
2022-10-21T15:59:29.116Z,32.86
2022-10-21T16:01:57.943Z,32.70
2022-10-21T16:04:27.974Z,33.02
2022-10-21T16:06:56.117Z,32.78
2022-10-21T16:09:26.537Z,33.00
2022-10-21T16:11:59.785Z,32.72
2022-10-21T16:14:30.098Z,32.84
2022-10-21T16:16:59.721Z,32.95
2022-10-21T16:19:29.448Z,32.81
2022-10-21T16:21:57.806Z,32.92
2022-10-21T16:24:25.826Z,33.04
2022-10-21T16:26:53.857Z,32.92
2022-10-21T16:29:23.112Z,33.16
2022-10-21T16:31:51.943Z,33.13
2022-10-21T16:34:20.516Z,33.13
2022-10-21T16:36:49.819Z,33.25
2022-10-21T16:39:20.103Z,33.14
2022-10-21T16:41:48.128Z,32.83
2022-10-21T16:44:17.713Z,33.00
2022-10-21T16:46:51.774Z,33.36
2022-10-21T16:49:23.353Z,33.06
2022-10-21T16:51:53.620Z,33.08
2022-10-21T16:54:23.269Z,33.20
2022-10-21T16:56:54.694Z,33.35
2022-10-21T16:59:23.783Z,33.30
2022-10-21T17:01:51.984Z,33.60
2022-10-21T17:04:19.908Z,33.42
2022-10-21T17:06:47.997Z,33.59
2022-10-21T17:09:17.523Z,33.26
2022-10-21T17:11:45.569Z,33.75
2022-10-21T17:14:16.615Z,33.37
2022-10-21T17:16:45.369Z,33.33
2022-10-21T17:19:13.466Z,33.46
2022-10-21T17:21:42.000Z,33.76
2022-10-21T17:24:15.502Z,33.53
2022-10-21T17:26:45.454Z,33.51
2022-10-21T17:29:13.869Z,33.80
2022-10-21T17:31:43.252Z,33.34
2022-10-21T17:34:25.525Z,33.39
2022-10-21T17:36:53.837Z,33.31
2022-10-21T17:39:22.117Z,33.33
2022-10-21T17:41:51.512Z,33.52
2022-10-21T17:44:19.526Z,33.59
2022-10-21T17:46:49.500Z,33.48
2022-10-21T17:49:17.390Z,33.20
2022-10-21T17:51:45.489Z,33.26
2022-10-21T17:54:13.435Z,33.47
2022-10-21T17:56:41.770Z,33.29
2022-10-21T17:59:11.570Z,33.65
2022-10-21T18:01:39.609Z,33.33
2022-10-21T18:04:07.542Z,33.24
2022-10-21T18:06:35.449Z,33.64
2022-10-21T18:09:05.378Z,33.52
2022-10-21T18:11:33.423Z,33.39
2022-10-21T18:14:01.482Z,33.33
2022-10-21T18:16:30.818Z,33.34
2022-10-21T18:19:01.956Z,33.46
2022-10-21T18:21:31.750Z,33.18
2022-10-21T18:23:59.673Z,33.42
2022-10-21T18:26:29.583Z,33.38
2022-10-21T18:29:00.136Z,33.43
2022-10-21T18:31:31.342Z,33.09
2022-10-21T18:34:01.138Z,33.36
2022-10-21T18:36:29.664Z,33.48
2022-10-21T18:38:58.636Z,33.53
2022-10-21T18:41:27.209Z,33.32
2022-10-21T18:43:57.601Z,33.27
2022-10-21T18:46:25.646Z,33.56
2022-10-21T18:48:56.140Z,33.42
2022-10-21T18:51:25.246Z,33.23
2022-10-21T18:53:53.997Z,33.33
2022-10-21T18:56:24.899Z,33.43
2022-10-21T18:58:54.681Z,33.73
2022-10-21T19:01:25.400Z,33.30
2022-10-21T19:03:56.330Z,33.55
2022-10-21T19:06:34.372Z,33.83
2022-10-21T19:09:11.633Z,33.45
2022-10-21T19:11:44.118Z,33.83
2022-10-21T19:14:14.911Z,33.79
2022-10-21T19:16:45.426Z,33.89
2022-10-21T19:19:17.974Z,33.80
2022-10-21T19:21:46.265Z,33.94
2022-10-21T19:24:14.573Z,33.52
2022-10-21T19:26:45.130Z,33.92
2022-10-21T19:29:16.231Z,33.66
2022-10-21T19:34:22.692Z,33.52
2022-10-21T19:36:52.457Z,33.61
2022-10-21T19:39:21.371Z,33.91
2022-10-21T19:41:49.541Z,33.90
2022-10-21T19:44:17.762Z,33.66
2022-10-21T19:46:48.857Z,33.95
2022-10-21T19:49:16.782Z,33.98
2022-10-21T19:51:46.326Z,34.10
2022-10-21T19:54:14.958Z,33.99
2022-10-21T19:56:43.114Z,34.18
2022-10-21T19:59:12.320Z,33.78
2022-10-21T20:01:40.431Z,33.98
2022-10-21T20:04:08.553Z,34.05
2022-10-21T20:06:38.323Z,34.25
2022-10-21T20:09:10.943Z,33.91
2022-10-21T20:11:40.062Z,34.10
2022-10-21T20:14:08.118Z,34.25
2022-10-21T20:16:37.833Z,33.84
2022-10-21T20:19:07.813Z,34.17
2022-10-21T20:21:37.122Z,33.82
2022-10-21T20:24:07.189Z,34.32
2022-10-21T20:26:35.578Z,34.24
2022-10-21T20:29:03.574Z,34.13
2022-10-21T20:31:31.879Z,33.80
2022-10-21T20:33:59.829Z,34.07
2022-10-21T20:36:30.001Z,34.21
2022-10-21T20:38:59.763Z,34.10
2022-10-21T20:41:33.903Z,34.17
2022-10-21T20:44:02.896Z,34.22
2022-10-21T20:46:34.763Z,33.89
2022-10-21T20:49:03.972Z,34.01
2022-10-21T20:51:32.245Z,33.91
2022-10-21T20:54:02.035Z,33.85
2022-10-21T20:56:33.591Z,33.92
2022-10-21T20:59:02.034Z,34.20
2022-10-21T21:01:32.440Z,34.13
2022-10-21T21:04:02.617Z,34.23
2022-10-21T21:06:30.480Z,34.31
2022-10-21T21:09:29.066Z,34.05
2022-10-21T21:11:48.146Z,34.27
2022-10-21T21:14:16.426Z,34.03
2022-10-21T21:16:44.332Z,34.10
2022-10-21T21:19:13.591Z,34.32
2022-10-21T21:21:41.837Z,34.24
2022-10-21T21:24:09.749Z,34.08
2022-10-21T21:26:41.370Z,34.02
2022-10-21T21:29:11.266Z,34.08
2022-10-21T21:31:40.589Z,34.10
2022-10-21T21:34:09.064Z,33.93
2022-10-21T21:36:37.718Z,34.03
2022-10-21T21:39:06.202Z,34.23
2022-10-21T21:41:35.094Z,34.02
2022-10-21T21:44:03.030Z,34.14
2022-10-21T21:46:32.496Z,33.94
2022-10-21T21:49:05.834Z,34.16
2022-10-21T21:51:36.019Z,34.13
2022-10-21T21:54:05.128Z,34.37
2022-10-21T21:56:33.246Z,34.35
2022-10-21T21:59:01.115Z,34.10
2022-10-21T22:01:30.274Z,34.04
2022-10-21T22:04:01.081Z,34.21
2022-10-21T22:06:30.925Z,34.20
2022-10-21T22:08:59.598Z,34.12
2022-10-21T22:11:30.471Z,34.36
2022-10-21T22:13:58.917Z,34.25
2022-10-21T22:16:30.175Z,34.00
2022-10-21T22:19:01.281Z,34.48
2022-10-21T22:21:31.237Z,34.02
2022-10-21T22:23:59.471Z,34.17
2022-10-21T22:26:27.717Z,34.14
2022-10-21T22:28:56.056Z,34.23
2022-10-21T22:31:29.199Z,34.22
2022-10-21T22:34:02.184Z,34.53
2022-10-21T22:36:30.607Z,34.26
2022-10-21T22:38:58.731Z,34.26
2022-10-21T22:41:27.211Z,34.38
2022-10-21T22:43:55.089Z,34.29
2022-10-21T22:46:34.227Z,34.56
2022-10-21T22:49:04.574Z,34.64
2022-10-21T22:51:32.625Z,34.60
2022-10-21T22:54:01.295Z,34.28
2022-10-21T22:56:29.715Z,34.19
2022-10-21T22:58:58.276Z,34.32
2022-10-21T23:01:30.188Z,34.19
2022-10-21T23:03:58.479Z,34.57
2022-10-21T23:06:27.858Z,34.15
2022-10-21T23:08:55.872Z,34.45
2022-10-21T23:11:24.000Z,34.43
2022-10-21T23:14:02.598Z,34.66
2022-10-21T23:16:31.916Z,34.60
2022-10-21T23:19:00.222Z,34.61
2022-10-21T23:21:29.909Z,34.53
2022-10-21T23:23:57.805Z,34.52
2022-10-21T23:26:26.065Z,34.26
2022-10-21T23:28:54.066Z,34.11
2022-10-21T23:31:22.522Z,34.56
2022-10-21T23:33:50.456Z,34.56
2022-10-21T23:36:18.406Z,34.33
2022-10-21T23:38:47.689Z,34.26
2022-10-21T23:41:15.573Z,34.54
2022-10-21T23:43:43.551Z,34.62
2022-10-21T23:46:11.502Z,34.56
2022-10-21T23:48:39.509Z,34.18
2022-10-21T23:51:07.430Z,34.41
2022-10-21T23:53:35.337Z,34.57
2022-10-21T23:56:04.875Z,34.62
2022-10-21T23:58:32.798Z,34.67
